createdAt,value
2022-10-14T00:01:12.079Z,14.10
2022-10-14T00:03:40.117Z,14.10
2022-10-14T00:06:09.746Z,14.10
2022-10-14T00:08:36.734Z,14.10
2022-10-14T00:11:12.993Z,14.10
2022-10-14T00:13:40.262Z,14.10
2022-10-14T00:16:14.782Z,14.20
2022-10-14T00:18:41.949Z,14.20
2022-10-14T00:21:12.246Z,14.20
2022-10-14T00:23:39.241Z,14.10
2022-10-14T00:26:06.199Z,14.10
2022-10-14T00:28:35.459Z,14.00
2022-10-14T00:31:02.717Z,14.00
2022-10-14T00:33:29.721Z,14.00
2022-10-14T00:36:04.679Z,13.90
2022-10-14T00:38:34.699Z,13.90
2022-10-14T00:41:02.407Z,13.90
2022-10-14T00:43:30.081Z,13.90
2022-10-14T00:45:56.913Z,13.90
2022-10-14T00:48:26.339Z,13.90
2022-10-14T00:50:57.270Z,13.90
2022-10-14T00:53:24.352Z,13.90
2022-10-14T00:55:52.874Z,13.80
2022-10-14T00:58:23.784Z,13.80
2022-10-14T01:00:50.950Z,13.80
2022-10-14T01:03:20.990Z,13.80
2022-10-14T01:06:04.405Z,13.70
2022-10-14T01:08:49.244Z,13.80
2022-10-14T01:11:47.069Z,13.80
2022-10-14T01:14:51.099Z,13.80
2022-10-14T01:17:48.212Z,13.80
2022-10-14T01:20:33.151Z,13.80
2022-10-14T01:23:21.409Z,13.80
2022-10-14T01:26:13.079Z,13.90
2022-10-14T01:29:05.807Z,14.00
2022-10-14T01:31:35.628Z,14.10
2022-10-14T01:34:10.766Z,14.20
2022-10-14T01:37:00.153Z,14.30
2022-10-14T01:39:42.332Z,14.50
2022-10-14T01:42:15.190Z,14.60
2022-10-14T01:44:48.985Z,14.70
2022-10-14T01:47:20.311Z,14.70
2022-10-14T01:49:56.989Z,14.70
2022-10-14T01:52:30.995Z,14.70
2022-10-14T01:55:03.109Z,14.70
2022-10-14T01:57:33.800Z,14.70
2022-10-14T02:00:02.546Z,14.80
2022-10-14T02:02:42.036Z,14.80
2022-10-14T02:05:22.233Z,14.80
2022-10-14T02:07:57.308Z,14.80
2022-10-14T02:10:39.563Z,14.80
2022-10-14T02:13:09.489Z,14.90
2022-10-14T02:16:07.502Z,15.00
2022-10-14T02:19:02.289Z,15.10
2022-10-14T02:21:50.364Z,15.10
2022-10-14T02:24:26.596Z,15.20
2022-10-14T02:26:57.314Z,15.20
2022-10-14T02:29:27.365Z,15.30
2022-10-14T02:31:56.148Z,15.30
2022-10-14T02:34:25.442Z,15.40
2022-10-14T02:36:55.019Z,15.30
2022-10-14T02:39:32.806Z,15.40
2022-10-14T02:41:59.649Z,15.40
2022-10-14T02:44:26.462Z,15.40
2022-10-14T02:46:56.172Z,15.50
2022-10-14T02:49:23.481Z,15.50
2022-10-14T02:51:50.353Z,15.50
2022-10-14T02:54:17.221Z,15.50
2022-10-14T02:56:44.195Z,15.40
2022-10-14T02:59:11.042Z,15.50
2022-10-14T03:01:38.631Z,15.40
2022-10-14T03:04:08.293Z,15.40
2022-10-14T03:06:36.108Z,15.40
2022-10-14T03:09:03.214Z,15.40
2022-10-14T03:11:34.350Z,15.40
2022-10-14T03:14:05.600Z,15.40
2022-10-14T03:16:32.725Z,15.40
2022-10-14T03:18:59.915Z,15.40
2022-10-14T03:21:40.216Z,15.40
2022-10-14T03:24:13.050Z,15.40
2022-10-14T03:26:41.016Z,15.40
2022-10-14T03:29:07.950Z,15.50
2022-10-14T03:31:57.886Z,15.50
2022-10-14T03:34:32.203Z,15.50
2022-10-14T03:37:11.758Z,15.50
2022-10-14T03:39:45.451Z,15.50
2022-10-14T03:42:13.551Z,15.60
2022-10-14T03:44:46.194Z,15.60
2022-10-14T03:47:32.103Z,15.60
2022-10-14T03:50:00.904Z,15.60
2022-10-14T03:52:34.543Z,15.70
2022-10-14T03:55:08.835Z,15.70
2022-10-14T03:57:35.718Z,15.70
2022-10-14T04:00:06.204Z,15.70
2022-10-14T04:02:42.336Z,15.70
2022-10-14T04:05:23.043Z,15.70
2022-10-14T04:07:50.342Z,15.80
2022-10-14T04:10:17.983Z,15.80
2022-10-14T04:12:50.958Z,15.80
2022-10-14T04:15:26.657Z,15.80
2022-10-14T04:18:06.831Z,15.90
2022-10-14T04:20:33.901Z,15.80
2022-10-14T04:23:00.952Z,15.90
2022-10-14T04:25:28.906Z,15.90
2022-10-14T04:28:02.322Z,15.90
2022-10-14T04:30:41.813Z,15.90
2022-10-14T04:33:12.692Z,16.00
2022-10-14T04:35:40.999Z,16.00
2022-10-14T04:38:13.758Z,16.10
2022-10-14T04:40:50.669Z,16.10
2022-10-14T04:43:18.115Z,16.20
2022-10-14T04:45:46.680Z,16.20
2022-10-14T04:48:20.965Z,16.30
2022-10-14T04:50:51.495Z,16.30
2022-10-14T04:53:39.534Z,16.30
2022-10-14T04:56:24.823Z,16.30
2022-10-14T04:58:57.628Z,16.40
2022-10-14T05:01:35.905Z,16.40
2022-10-14T05:04:02.853Z,16.40
2022-10-14T05:06:33.979Z,16.40
2022-10-14T05:09:02.336Z,16.50
2022-10-14T05:11:29.376Z,16.50
2022-10-14T05:13:57.390Z,16.50
2022-10-14T05:16:27.031Z,16.50
2022-10-14T05:18:53.983Z,16.50
2022-10-14T05:21:21.403Z,16.50
2022-10-14T05:24:11.413Z,16.50
2022-10-14T05:26:40.248Z,16.50
2022-10-14T05:29:13.523Z,16.50
2022-10-14T05:31:41.353Z,16.50
2022-10-14T05:34:29.921Z,16.50
2022-10-14T05:36:57.545Z,16.50
2022-10-14T05:39:24.998Z,16.50
2022-10-14T05:41:52.028Z,16.50
2022-10-14T05:44:23.673Z,16.50
2022-10-14T05:46:50.719Z,16.50
2022-10-14T05:49:17.611Z,16.50
2022-10-14T05:51:44.980Z,16.50
2022-10-14T05:54:19.026Z,16.50
2022-10-14T05:56:48.768Z,16.60
2022-10-14T05:59:15.725Z,16.60
2022-10-14T06:01:43.767Z,16.60
2022-10-14T06:04:17.533Z,16.60
2022-10-14T06:06:44.509Z,16.60
2022-10-14T06:09:11.862Z,16.60
2022-10-14T06:11:39.356Z,16.60
2022-10-14T06:14:06.583Z,16.60
2022-10-14T06:16:33.865Z,16.60
2022-10-14T06:19:04.327Z,16.60
2022-10-14T06:21:31.327Z,16.60
2022-10-14T06:23:58.174Z,16.60
2022-10-14T06:26:27.058Z,16.60
2022-10-14T06:28:53.996Z,16.60
2022-10-14T06:31:21.049Z,16.70
2022-10-14T06:33:47.912Z,16.60
2022-10-14T06:36:14.960Z,16.70
2022-10-14T06:38:42.837Z,16.70
2022-10-14T06:41:10.217Z,16.70
2022-10-14T06:43:37.129Z,16.80
2022-10-14T06:46:05.479Z,16.80
2022-10-14T06:48:32.438Z,16.80
2022-10-14T06:51:00.798Z,16.80
2022-10-14T06:53:29.030Z,16.80
2022-10-14T06:56:04.621Z,16.90
2022-10-14T06:58:32.091Z,16.90
2022-10-14T07:01:06.589Z,16.90
2022-10-14T07:03:38.758Z,16.90
2022-10-14T07:06:07.144Z,16.90
2022-10-14T07:08:34.098Z,16.90
2022-10-14T07:11:01.349Z,16.90
2022-10-14T07:13:28.242Z,16.90
2022-10-14T07:15:55.138Z,16.90
2022-10-14T07:18:22.225Z,17.00
2022-10-14T07:20:49.280Z,17.00
2022-10-14T07:23:16.277Z,17.00
2022-10-14T07:25:43.340Z,17.00
2022-10-14T07:28:10.406Z,17.00
2022-10-14T07:30:37.747Z,17.10
2022-10-14T07:33:05.074Z,17.10
2022-10-14T07:35:32.301Z,17.10
2022-10-14T07:37:59.871Z,17.20
2022-10-14T07:40:27.536Z,17.20
2022-10-14T07:42:56.030Z,17.20
2022-10-14T07:45:23.378Z,17.30
2022-10-14T07:47:52.318Z,17.30
2022-10-14T07:50:20.094Z,17.30
2022-10-14T07:52:46.938Z,17.40
2022-10-14T07:55:13.850Z,17.40
2022-10-14T07:57:40.768Z,17.50
2022-10-14T08:00:09.081Z,17.50
2022-10-14T08:02:38.901Z,17.50
2022-10-14T08:05:36.566Z,17.60
2022-10-14T08:07:53.818Z,17.60
2022-10-14T08:10:21.865Z,17.60
2022-10-14T08:12:48.828Z,17.60
2022-10-14T08:15:15.737Z,17.70
2022-10-14T08:17:42.542Z,17.70
2022-10-14T08:20:09.739Z,17.70
2022-10-14T08:22:36.616Z,17.70
2022-10-14T08:25:03.666Z,17.80
2022-10-14T08:27:30.451Z,17.80
2022-10-14T08:29:57.577Z,17.80
2022-10-14T08:32:24.898Z,17.80
2022-10-14T08:34:52.410Z,17.80
2022-10-14T08:37:19.250Z,17.90
2022-10-14T08:39:46.139Z,17.90
2022-10-14T08:42:49.884Z,18.00
2022-10-14T08:45:31.971Z,18.00
2022-10-14T08:48:01.594Z,18.00
2022-10-14T08:50:49.357Z,18.10
2022-10-14T08:53:40.493Z,18.10
2022-10-14T08:56:10.143Z,18.10
2022-10-14T08:58:49.155Z,18.10
2022-10-14T09:01:27.666Z,18.20
2022-10-14T09:03:58.380Z,18.20
2022-10-14T09:06:30.687Z,18.20
2022-10-14T09:09:04.560Z,18.20
2022-10-14T09:11:38.685Z,18.20
2022-10-14T09:14:09.544Z,18.20
2022-10-14T09:16:39.890Z,18.20
2022-10-14T09:19:18.499Z,18.30
2022-10-14T09:21:53.632Z,18.30
2022-10-14T09:24:27.549Z,18.30
2022-10-14T09:26:58.136Z,18.40
2022-10-14T09:29:35.992Z,18.40
2022-10-14T09:32:06.888Z,18.40
2022-10-14T09:34:40.926Z,18.50
2022-10-14T09:37:32.500Z,18.50
2022-10-14T09:40:17.291Z,18.50
2022-10-14T09:43:08.332Z,18.50
2022-10-14T09:45:49.415Z,18.50
2022-10-14T09:48:37.727Z,18.40
2022-10-14T09:51:19.062Z,18.50
2022-10-14T09:53:53.255Z,18.50
2022-10-14T09:56:32.527Z,18.60
2022-10-14T09:58:59.563Z,18.60
2022-10-14T10:01:36.409Z,18.60
2022-10-14T10:04:24.986Z,18.60
2022-10-14T10:06:54.523Z,18.60
2022-10-14T10:09:21.888Z,18.60
2022-10-14T10:11:48.904Z,18.70
2022-10-14T10:14:30.980Z,18.70
2022-10-14T10:17:10.127Z,18.70
2022-10-14T10:19:51.459Z,18.80
2022-10-14T10:22:23.874Z,18.80
2022-10-14T10:25:14.502Z,18.80
2022-10-14T10:27:47.573Z,18.90
2022-10-14T10:30:17.784Z,18.90
2022-10-14T10:33:00.086Z,18.90
2022-10-14T10:35:54.717Z,18.90
2022-10-14T10:38:50.798Z,18.90
2022-10-14T10:41:42.461Z,18.90
2022-10-14T10:44:41.428Z,18.90
2022-10-14T10:47:20.708Z,18.90
2022-10-14T10:52:41.127Z,18.90
2022-10-14T10:55:36.024Z,18.90
2022-10-14T10:58:30.630Z,18.90
2022-10-14T11:01:06.586Z,18.90
2022-10-14T11:04:02.869Z,18.90
2022-10-14T11:06:53.685Z,19.00
2022-10-14T11:10:08.564Z,19.00
2022-10-14T11:12:43.117Z,19.00
2022-10-14T11:15:28.616Z,19.00
2022-10-14T11:18:01.547Z,19.00
2022-10-14T11:20:37.078Z,18.90
2022-10-14T11:23:17.816Z,18.90
2022-10-14T11:25:57.404Z,18.90
2022-10-14T11:28:30.078Z,18.90
2022-10-14T11:31:39.943Z,18.90
2022-10-14T11:34:38.113Z,18.90
2022-10-14T11:37:28.078Z,18.90
2022-10-14T11:40:01.585Z,19.00
2022-10-14T11:42:48.071Z,19.00
2022-10-14T11:45:49.730Z,19.00
2022-10-14T11:48:32.032Z,19.00
2022-10-14T11:51:22.421Z,19.00
2022-10-14T11:54:28.627Z,19.10
2022-10-14T11:57:03.801Z,19.00
2022-10-14T11:59:30.615Z,19.10
2022-10-14T12:02:32.050Z,19.10
2022-10-14T12:05:09.852Z,19.10
2022-10-14T12:07:44.930Z,19.10
2022-10-14T12:10:28.009Z,19.10
2022-10-14T12:12:55.578Z,19.10
2022-10-14T12:15:26.040Z,19.10
2022-10-14T12:18:02.576Z,19.20
2022-10-14T12:21:03.113Z,19.20
2022-10-14T12:23:33.270Z,19.20
2022-10-14T12:26:09.003Z,19.20
2022-10-14T12:28:37.781Z,19.20
2022-10-14T12:31:33.943Z,19.20
2022-10-14T12:34:15.921Z,19.20
2022-10-14T12:36:47.710Z,19.20
2022-10-14T12:39:17.622Z,19.20
2022-10-14T12:41:50.673Z,19.20
2022-10-14T12:44:19.797Z,19.20
2022-10-14T12:46:51.874Z,19.30
2022-10-14T12:49:34.916Z,19.30
2022-10-14T12:52:08.341Z,19.40
2022-10-14T12:54:37.701Z,19.40
2022-10-14T12:57:27.694Z,19.40
2022-10-14T12:59:56.833Z,19.40
2022-10-14T13:02:32.466Z,19.40
2022-10-14T13:05:20.902Z,19.50
2022-10-14T13:08:07.993Z,19.50
2022-10-14T13:10:43.219Z,19.60
2022-10-14T13:14:07.947Z,19.60
2022-10-14T13:16:34.675Z,19.70
2022-10-14T13:19:03.131Z,19.70
2022-10-14T13:21:52.579Z,19.70
2022-10-14T13:24:38.468Z,19.80
2022-10-14T13:27:34.171Z,19.80
2022-10-14T13:30:04.374Z,19.80
2022-10-14T13:32:50.365Z,19.80
2022-10-14T13:35:32.218Z,19.80
2022-10-14T13:38:12.027Z,19.90
2022-10-14T13:40:44.318Z,19.90
2022-10-14T13:43:17.138Z,19.90
2022-10-14T13:45:54.840Z,20.00
2022-10-14T13:48:48.095Z,20.00
2022-10-14T13:51:24.744Z,20.00
2022-10-14T13:54:24.707Z,20.00
2022-10-14T14:02:43.427Z,20.10
2022-10-14T14:05:17.458Z,20.20
2022-10-14T14:10:34.605Z,20.20
2022-10-14T14:13:06.052Z,20.30
2022-10-14T14:15:33.160Z,20.20
2022-10-14T14:18:00.005Z,20.20
2022-10-14T14:20:33.909Z,20.20
2022-10-14T14:23:00.822Z,20.30
2022-10-14T14:25:34.499Z,20.40
2022-10-14T14:28:13.861Z,20.40
2022-10-14T14:30:50.678Z,20.40
2022-10-14T14:33:36.046Z,20.50
2022-10-14T14:36:05.529Z,20.50
2022-10-14T14:38:36.092Z,20.50
2022-10-14T14:41:06.113Z,20.40
2022-10-14T14:43:36.475Z,20.40
2022-10-14T14:46:06.014Z,20.30
2022-10-14T14:48:34.190Z,20.30
2022-10-14T14:51:01.919Z,20.20
2022-10-14T14:53:30.134Z,20.20
2022-10-14T14:56:02.006Z,20.10
2022-10-14T14:58:50.404Z,20.10
2022-10-14T15:01:23.591Z,20.10
2022-10-14T15:04:12.872Z,20.10
2022-10-14T15:07:11.694Z,20.10
2022-10-14T15:09:51.086Z,20.10
2022-10-14T15:12:28.150Z,20.10
2022-10-14T15:14:58.857Z,20.20
2022-10-14T15:17:31.490Z,20.20
2022-10-14T15:20:04.493Z,20.20
2022-10-14T15:22:37.291Z,20.20
2022-10-14T15:25:25.301Z,20.20
2022-10-14T15:27:53.563Z,20.20
2022-10-14T15:30:26.953Z,20.20
2022-10-14T15:32:57.427Z,20.20
2022-10-14T15:35:25.344Z,20.20
2022-10-14T15:37:52.760Z,20.20
2022-10-14T15:40:28.044Z,20.20
2022-10-14T15:42:55.306Z,20.20
2022-10-14T15:45:23.054Z,20.20
2022-10-14T15:50:29.174Z,20.10
2022-10-14T15:52:56.830Z,20.10
2022-10-14T15:55:27.423Z,20.10
2022-10-14T15:57:54.421Z,20.10
2022-10-14T16:00:23.647Z,20.10
2022-10-14T16:02:58.495Z,20.10
2022-10-14T16:05:29.871Z,20.10
2022-10-14T16:07:57.485Z,20.00
2022-10-14T16:10:25.913Z,20.10
2022-10-14T16:12:55.391Z,20.00
2022-10-14T16:15:46.008Z,20.00
2022-10-14T16:18:12.901Z,20.00
2022-10-14T16:20:40.023Z,19.90
2022-10-14T16:23:07.203Z,19.90
2022-10-14T16:25:39.418Z,19.90
2022-10-14T16:28:10.061Z,19.90
2022-10-14T16:30:44.932Z,19.90
2022-10-14T16:35:38.853Z,19.90
2022-10-14T16:38:05.735Z,19.90
2022-10-14T16:40:36.640Z,19.80
2022-10-14T16:43:06.211Z,19.80
2022-10-14T16:45:33.333Z,19.80
2022-10-14T16:48:00.329Z,19.70
2022-10-14T16:50:27.216Z,19.70
2022-10-14T16:53:13.037Z,19.70
2022-10-14T16:55:39.880Z,19.70
2022-10-14T16:58:06.763Z,19.70
2022-10-14T17:00:34.115Z,19.70
2022-10-14T17:03:02.132Z,19.60
2022-10-14T17:05:29.029Z,19.60
2022-10-14T17:07:55.892Z,19.60
2022-10-14T17:10:22.779Z,19.60
2022-10-14T17:12:49.708Z,19.50
2022-10-14T17:15:16.608Z,19.50
2022-10-14T17:17:44.792Z,19.50
2022-10-14T17:20:11.647Z,19.40
2022-10-14T17:22:39.268Z,19.40
2022-10-14T17:25:08.365Z,19.40
2022-10-14T17:27:35.239Z,19.40
2022-10-14T17:30:02.311Z,19.30
2022-10-14T17:32:29.302Z,19.30
2022-10-14T17:34:56.648Z,19.30
2022-10-14T17:37:23.505Z,19.20
2022-10-14T17:39:50.429Z,19.20
2022-10-14T17:42:17.274Z,19.20
2022-10-14T17:44:47.061Z,19.10
2022-10-14T17:47:13.948Z,19.10
2022-10-14T17:49:40.782Z,19.10
2022-10-14T17:52:07.726Z,19.10
2022-10-14T17:54:34.567Z,19.00
2022-10-14T17:57:01.386Z,19.00
2022-10-14T17:59:28.293Z,19.00
2022-10-14T18:02:02.515Z,19.00
2022-10-14T18:04:30.601Z,18.90
2022-10-14T18:06:58.962Z,18.90
2022-10-14T18:09:25.902Z,18.90
2022-10-14T18:12:09.467Z,18.90
2022-10-14T18:14:37.883Z,18.90
2022-10-14T18:17:05.198Z,18.90
2022-10-14T18:19:32.519Z,18.80
2022-10-14T18:21:59.542Z,18.90
2022-10-14T18:24:26.485Z,18.80
2022-10-14T18:26:53.649Z,18.80
2022-10-14T18:29:20.777Z,18.80
2022-10-14T18:31:50.108Z,18.70
2022-10-14T18:34:17.519Z,18.80
2022-10-14T18:36:44.658Z,18.70
2022-10-14T18:39:12.328Z,18.70
2022-10-14T18:41:39.852Z,18.70
2022-10-14T18:44:07.249Z,18.60
2022-10-14T18:46:36.092Z,18.60
2022-10-14T18:49:04.885Z,18.60
2022-10-14T18:51:35.151Z,18.60
2022-10-14T18:54:05.370Z,18.50
2022-10-14T18:56:36.400Z,18.50
2022-10-14T18:59:15.212Z,18.40
2022-10-14T19:01:42.603Z,18.40
2022-10-14T19:04:15.319Z,18.40
2022-10-14T19:06:44.915Z,18.30
2022-10-14T19:09:12.766Z,18.30
2022-10-14T19:11:41.126Z,18.30
2022-10-14T19:14:09.781Z,18.30
2022-10-14T19:16:38.295Z,18.30
2022-10-14T19:19:08.416Z,18.30
2022-10-14T19:21:35.342Z,18.30
2022-10-14T19:24:03.311Z,18.30
2022-10-14T19:26:32.323Z,18.30
2022-10-14T19:29:00.885Z,18.30
2022-10-14T19:31:30.654Z,18.20
2022-10-14T19:33:59.800Z,18.20
2022-10-14T19:36:26.975Z,18.20
2022-10-14T19:38:57.921Z,18.20
2022-10-14T19:41:30.035Z,18.20
2022-10-14T19:43:58.431Z,18.20
2022-10-14T19:46:27.778Z,18.10
2022-10-14T19:48:59.536Z,18.10
2022-10-14T19:51:27.201Z,18.10
2022-10-14T19:53:58.244Z,18.10
2022-10-14T19:56:26.906Z,18.10
2022-10-14T19:58:56.060Z,18.10
2022-10-14T20:01:24.954Z,18.00
2022-10-14T20:03:52.917Z,18.10
2022-10-14T20:06:21.717Z,18.00
2022-10-14T20:08:49.962Z,18.00
2022-10-14T20:11:19.083Z,18.00
2022-10-14T20:13:47.143Z,17.90
2022-10-14T20:16:14.333Z,17.90
2022-10-14T20:18:41.804Z,17.90
2022-10-14T20:21:11.547Z,17.90
2022-10-14T20:23:39.371Z,17.80
2022-10-14T20:26:09.223Z,17.80
2022-10-14T20:28:37.544Z,17.70
2022-10-14T20:31:12.977Z,17.70
2022-10-14T20:33:39.923Z,17.70
2022-10-14T20:36:11.392Z,17.60
2022-10-14T20:38:39.435Z,17.60
2022-10-14T20:41:09.722Z,17.60
2022-10-14T20:43:36.684Z,17.60
2022-10-14T20:46:03.580Z,17.60
2022-10-14T20:48:30.626Z,17.60
2022-10-14T20:50:57.479Z,17.60
2022-10-14T20:53:26.007Z,17.60
2022-10-14T20:55:52.821Z,17.60
2022-10-14T20:58:20.883Z,17.50
2022-10-14T21:00:47.734Z,17.40
2022-10-14T21:03:14.570Z,17.40
2022-10-14T21:05:41.424Z,17.40
2022-10-14T21:08:08.345Z,17.40
2022-10-14T21:10:35.220Z,17.40
2022-10-14T21:13:02.021Z,17.40
2022-10-14T21:15:28.995Z,17.30
2022-10-14T21:17:55.853Z,17.30
2022-10-14T21:20:22.694Z,17.30
2022-10-14T21:22:49.515Z,17.30
2022-10-14T21:25:16.481Z,17.30
2022-10-14T21:27:43.347Z,17.30
2022-10-14T21:30:10.979Z,17.30
2022-10-14T21:32:39.689Z,17.40
2022-10-14T21:35:07.164Z,17.40
2022-10-14T21:37:34.035Z,17.40
2022-10-14T21:40:00.880Z,17.40
2022-10-14T21:42:27.774Z,17.40
2022-10-14T21:44:54.629Z,17.40
2022-10-14T21:47:21.523Z,17.40
2022-10-14T21:49:48.383Z,17.40
2022-10-14T21:52:15.319Z,17.40
2022-10-14T21:54:42.163Z,17.40
2022-10-14T21:57:09.052Z,17.40
2022-10-14T21:59:35.864Z,17.40
2022-10-14T22:02:02.783Z,17.40
2022-10-14T22:04:33.219Z,17.40
2022-10-14T22:07:02.845Z,17.40
2022-10-14T22:09:29.743Z,17.40
2022-10-14T22:11:56.631Z,17.40
2022-10-14T22:14:23.510Z,17.40
2022-10-14T22:16:50.442Z,17.30
2022-10-14T22:19:17.315Z,17.30
2022-10-14T22:21:46.324Z,17.30
2022-10-14T22:24:13.689Z,17.30
2022-10-14T22:26:41.129Z,17.30
2022-10-14T22:29:14.654Z,17.20
2022-10-14T22:31:41.963Z,17.20
2022-10-14T22:34:11.508Z,17.20
2022-10-14T22:36:38.888Z,17.20
2022-10-14T22:39:10.756Z,17.20
2022-10-14T22:41:38.034Z,17.20
2022-10-14T22:44:06.093Z,17.10
2022-10-14T22:46:35.186Z,17.20
2022-10-14T22:49:02.415Z,17.20
2022-10-14T22:51:35.660Z,17.10
2022-10-14T22:54:03.133Z,17.10
2022-10-14T22:56:30.976Z,17.10
2022-10-14T22:59:04.039Z,17.10
2022-10-14T23:01:31.558Z,17.10
2022-10-14T23:03:59.643Z,17.10
2022-10-14T23:06:27.979Z,17.10
2022-10-14T23:08:55.110Z,17.10
2022-10-14T23:11:24.147Z,17.10
2022-10-14T23:13:51.221Z,17.10
2022-10-14T23:16:21.203Z,17.10
2022-10-14T23:18:48.863Z,17.00
2022-10-14T23:21:24.818Z,17.00
2022-10-14T23:23:55.006Z,17.00
2022-10-14T23:26:24.892Z,16.90
2022-10-14T23:28:57.574Z,16.90
2022-10-14T23:31:27.082Z,16.90
2022-10-14T23:33:54.680Z,16.90
2022-10-14T23:36:22.571Z,16.90
2022-10-14T23:38:51.602Z,16.90
2022-10-14T23:41:19.214Z,16.90
2022-10-14T23:43:46.036Z,16.90
2022-10-14T23:46:12.882Z,17.00
2022-10-14T23:48:39.893Z,16.90
2022-10-14T23:51:07.484Z,17.00
2022-10-14T23:53:35.377Z,17.00
2022-10-14T23:56:02.767Z,17.00
2022-10-14T23:58:29.917Z,17.00
